sensor_id;sensor_type;location;lat;lon;timestamp;pressure;altitude;pressure_sealevel;temperature;humidity
9474;BME280;8865;47.636;7.692;2023-03-01T00:01:28;98853.69;;;-0.33;100.00
9474;BME280;8865;47.636;7.692;2023-03-01T00:03:55;98849.50;;;-0.38;100.00
9474;BME280;8865;47.636;7.692;2023-03-01T00:06:22;98852.97;;;-0.39;100.00
9474;BME280;8865;47.636;7.692;2023-03-01T00:08:49;98850.44;;;-0.40;100.00
9474;BME280;8865;47.636;7.692;2023-03-01T00:11:21;98847.91;;;-0.42;100.00
9474;BME280;8865;47.636;7.692;2023-03-01T00:13:49;98852.38;;;-0.47;100.00
9474;BME280;8865;47.636;7.692;2023-03-01T00:16:28;98852.31;;;-0.45;100.00
9474;BME280;8865;47.636;7.692;2023-03-01T00:18:54;98848.88;;;-0.44;100.00
9474;BME280;8865;47.636;7.692;2023-03-01T00:21:22;98847.13;;;-0.44;100.00
9474;BME280;8865;47.636;7.692;2023-03-01T00:23:48;98846.34;;;-0.46;100.00
9474;BME280;8865;47.636;7.692;2023-03-01T00:26:16;98844.66;;;-0.47;100.00
9474;BME280;8865;47.636;7.692;2023-03-01T00:28:43;98840.34;;;-0.46;100.00
9474;BME280;8865;47.636;7.692;2023-03-01T00:31:13;98846.44;;;-0.49;100.00
9474;BME280;8865;47.636;7.692;2023-03-01T00:33:39;98834.50;;;-0.51;100.00
9474;BME280;8865;47.636;7.692;2023-03-01T00:36:06;98844.91;;;-0.55;100.00
9474;BME280;8865;47.636;7.692;2023-03-01T00:38:38;98845.88;;;-0.59;100.00
9474;BME280;8865;47.636;7.692;2023-03-01T00:41:06;98839.16;;;-0.63;100.00
9474;BME280;8865;47.636;7.692;2023-03-01T00:43:32;98834.91;;;-0.64;100.00
9474;BME280;8865;47.636;7.692;2023-03-01T00:46:07;98835.88;;;-0.68;100.00
9474;BME280;8865;47.636;7.692;2023-03-01T00:48:35;98830.91;;;-0.74;100.00
9474;BME280;8865;47.636;7.692;2023-03-01T00:51:10;98831.88;;;-0.77;100.00
9474;BME280;8865;47.636;7.692;2023-03-01T00:53:37;98827.66;;;-0.79;100.00
9474;BME280;8865;47.636;7.692;2023-03-01T00:56:04;98824.41;;;-0.84;100.00
9474;BME280;8865;47.636;7.692;2023-03-01T00:58:31;98825.41;;;-0.90;100.00
9474;BME280;8865;47.636;7.692;2023-03-01T01:00:57;98829.00;;;-0.96;100.00
9474;BME280;8865;47.636;7.692;2023-03-01T01:03:23;98831.56;;;-0.96;100.00
9474;BME280;8865;47.636;7.692;2023-03-01T01:05:52;98823.13;;;-0.99;100.00
9474;BME280;8865;47.636;7.692;2023-03-01T01:08:19;98816.31;;;-1.02;100.00
9474;BME280;8865;47.636;7.692;2023-03-01T01:10:45;98813.81;;;-1.03;100.00
9474;BME280;8865;47.636;7.692;2023-03-01T01:13:12;98806.22;;;-1.08;100.00
9474;BME280;8865;47.636;7.692;2023-03-01T01:15:38;98812.38;;;-1.14;100.00
9474;BME280;8865;47.636;7.692;2023-03-01T01:18:04;98807.38;;;-1.18;100.00
9474;BME280;8865;47.636;7.692;2023-03-01T01:20:32;98808.34;;;-1.21;100.00
9474;BME280;8865;47.636;7.692;2023-03-01T01:22:58;98799.03;;;-1.25;100.00
9474;BME280;8865;47.636;7.692;2023-03-01T01:25:25;98799.97;;;-1.29;100.00
9474;BME280;8865;47.636;7.692;2023-03-01T01:27:52;98797.47;;;-1.31;100.00
9474;BME280;8865;47.636;7.692;2023-03-01T01:30:18;98792.41;;;-1.34;100.00
9474;BME280;8865;47.636;7.692;2023-03-01T01:32:43;98795.03;;;-1.35;100.00
9474;BME280;8865;47.636;7.692;2023-03-01T01:35:10;98790.84;;;-1.38;100.00
9474;BME280;8865;47.636;7.692;2023-03-01T01:37:36;98783.22;;;-1.41;100.00
9474;BME280;8865;47.636;7.692;2023-03-01T01:40:03;98779.84;;;-1.43;100.00
9474;BME280;8865;47.636;7.692;2023-03-01T01:42:32;98781.63;;;-1.45;100.00
9474;BME280;8865;47.636;7.692;2023-03-01T01:45:38;98785.09;;;-1.48;100.00
9474;BME280;8865;47.636;7.692;2023-03-01T01:48:06;98784.34;;;-1.51;100.00
9474;BME280;8865;47.636;7.692;2023-03-01T01:50:38;98785.28;;;-1.54;100.00
9474;BME280;8865;47.636;7.692;2023-03-01T01:53:11;98784.56;;;-1.59;100.00
9474;BME280;8865;47.636;7.692;2023-03-01T01:55:43;98772.69;;;-1.63;100.00
9474;BME280;8865;47.636;7.692;2023-03-01T01:58:14;98773.59;;;-1.64;100.00
9474;BME280;8865;47.636;7.692;2023-03-01T02:00:41;98774.47;;;-1.65;100.00
9474;BME280;8865;47.636;7.692;2023-03-01T02:03:13;98771.13;;;-1.67;100.00
9474;BME280;8865;47.636;7.692;2023-03-01T02:08:17;98762.69;;;-1.72;100.00
9474;BME280;8865;47.636;7.692;2023-03-01T02:10:45;98767.03;;;-1.74;100.00
9474;BME280;8865;47.636;7.692;2023-03-01T02:13:12;98768.81;;;-1.76;100.00
9474;BME280;8865;47.636;7.692;2023-03-01T02:15:39;98764.53;;;-1.77;100.00
9474;BME280;8865;47.636;7.692;2023-03-01T02:18:07;98759.50;;;-1.81;100.00
9474;BME280;8865;47.636;7.692;2023-03-01T02:20:40;98751.94;;;-1.85;100.00
9474;BME280;8865;47.636;7.692;2023-03-01T02:23:11;98761.41;;;-1.87;100.00
9474;BME280;8865;47.636;7.692;2023-03-01T02:25:57;98751.19;;;-1.89;100.00
9474;BME280;8865;47.636;7.692;2023-03-01T02:28:36;98756.41;;;-1.92;100.00
9474;BME280;8865;47.636;7.692;2023-03-01T02:31:07;98759.84;;;-1.93;100.00
9474;BME280;8865;47.636;7.692;2023-03-01T02:33:53;98748.75;;;-1.93;100.00
9474;BME280;8865;47.636;7.692;2023-03-01T02:36:24;98748.78;;;-1.95;100.00
9474;BME280;8865;47.636;7.692;2023-03-01T02:38:55;98738.56;;;-1.96;100.00
9474;BME280;8865;47.636;7.692;2023-03-01T02:41:23;98734.25;;;-1.96;100.00
9474;BME280;8865;47.636;7.692;2023-03-01T02:43:52;98734.25;;;-1.96;100.00
9474;BME280;8865;47.636;7.692;2023-03-01T02:46:21;98730.00;;;-1.97;100.00
9474;BME280;8865;47.636;7.692;2023-03-01T02:48:49;98730.03;;;-1.99;100.00
9474;BME280;8865;47.636;7.692;2023-03-01T02:56:33;98728.53;;;-2.06;100.00
9474;BME280;8865;47.636;7.692;2023-03-01T03:17:48;98710.91;;;-2.20;100.00
9474;BME280;8865;47.636;7.692;2023-03-01T09:20:03;98581.75;;;-0.34;100.00
9474;BME280;8865;47.636;7.692;2023-03-01T09:22:33;98576.38;;;-0.28;100.00
9474;BME280;8865;47.636;7.692;2023-03-01T09:25:00;98574.88;;;-0.10;100.00
9474;BME280;8865;47.636;7.692;2023-03-01T09:27:26;98582.31;;;-0.50;100.00
9474;BME280;8865;47.636;7.692;2023-03-01T09:29:52;98575.50;;;-0.27;100.00
9474;BME280;8865;47.636;7.692;2023-03-01T09:32:18;98575.56;;;-0.07;100.00
9474;BME280;8865;47.636;7.692;2023-03-01T09:34:44;98574.50;;;-0.01;100.00
9474;BME280;8865;47.636;7.692;2023-03-01T09:37:33;98579.38;;;0.07;100.00
9474;BME280;8865;47.636;7.692;2023-03-01T09:39:59;98575.25;;;0.25;100.00
9474;BME280;8865;47.636;7.692;2023-03-01T09:42:27;98565.22;;;0.39;100.00
9474;BME280;8865;47.636;7.692;2023-03-01T09:45:11;98568.47;;;0.44;100.00
9474;BME280;8865;47.636;7.692;2023-03-01T09:47:41;98569.13;;;0.49;100.00
9474;BME280;8865;47.636;7.692;2023-03-01T09:52:44;98566.50;;;0.51;100.00
9474;BME280;8865;47.636;7.692;2023-03-01T09:55:14;98564.50;;;0.58;100.00
9474;BME280;8865;47.636;7.692;2023-03-01T09:57:49;98565.53;;;0.31;100.00
9474;BME280;8865;47.636;7.692;2023-03-01T10:00:36;98552.50;;;0.57;100.00
9474;BME280;8865;47.636;7.692;2023-03-01T10:03:25;98549.75;;;0.61;100.00
9474;BME280;8865;47.636;7.692;2023-03-01T10:05:58;98557.84;;;0.52;100.00
9474;BME280;8865;47.636;7.692;2023-03-01T10:08:40;98555.63;;;0.65;100.00
9474;BME280;8865;47.636;7.692;2023-03-01T10:11:21;98548.34;;;0.75;100.00
9474;BME280;8865;47.636;7.692;2023-03-01T10:16:26;98554.41;;;0.94;100.00
9474;BME280;8865;47.636;7.692;2023-03-01T10:19:03;98544.00;;;0.75;100.00
9474;BME280;8865;47.636;7.692;2023-03-01T10:21:30;98548.97;;;0.80;100.00
9474;BME280;8865;47.636;7.692;2023-03-01T10:24:10;98548.22;;;0.78;100.00
9474;BME280;8865;47.636;7.692;2023-03-01T10:29:12;98538.03;;;0.75;100.00
9474;BME280;8865;47.636;7.692;2023-03-01T10:31:42;98535.81;;;0.86;100.00
9474;BME280;8865;47.636;7.692;2023-03-01T10:36:42;98532.09;;;0.93;100.00
9474;BME280;8865;47.636;7.692;2023-03-01T10:39:18;98525.72;;;1.02;100.00
9474;BME280;8865;47.636;7.692;2023-03-01T10:44:42;98526.59;;;1.21;100.00
9474;BME280;8865;47.636;7.692;2023-03-01T10:47:20;98524.72;;;1.25;100.00
9474;BME280;8865;47.636;7.692;2023-03-01T10:50:03;98527.72;;;1.35;100.00
9474;BME280;8865;47.636;7.692;2023-03-01T10:52:33;98525.19;;;1.54;100.00
9474;BME280;8865;47.636;7.692;2023-03-01T11:00:14;98520.22;;;1.49;100.00
9474;BME280;8865;47.636;7.692;2023-03-01T11:05:26;98508.47;;;1.99;100.00
9474;BME280;8865;47.636;7.692;2023-03-01T11:07:56;98502.97;;;2.24;100.00
9474;BME280;8865;47.636;7.692;2023-03-01T11:10:31;98502.63;;;1.95;100.00
9474;BME280;8865;47.636;7.692;2023-03-01T11:13:14;98499.66;;;2.03;100.00
9474;BME280;8865;47.636;7.692;2023-03-01T11:15:41;98501.75;;;1.95;100.00
9474;BME280;8865;47.636;7.692;2023-03-01T11:18:21;98498.78;;;2.22;100.00
9474;BME280;8865;47.636;7.692;2023-03-01T11:20:50;98487.69;;;2.37;100.00
9474;BME280;8865;47.636;7.692;2023-03-01T11:23:18;98490.06;;;2.59;100.00
9474;BME280;8865;47.636;7.692;2023-03-01T11:25:57;98497.50;;;2.48;100.00
9474;BME280;8865;47.636;7.692;2023-03-01T11:28:25;98493.03;;;2.52;100.00
9474;BME280;8865;47.636;7.692;2023-03-01T11:30:56;98493.84;;;2.70;100.00
9474;BME280;8865;47.636;7.692;2023-03-01T11:36:07;98486.69;;;3.26;100.00
9474;BME280;8865;47.636;7.692;2023-03-01T11:38:39;98482.00;;;3.16;100.00
9474;BME280;8865;47.636;7.692;2023-03-01T11:41:08;98476.69;;;3.51;100.00
9474;BME280;8865;47.636;7.692;2023-03-01T11:55:46;98460.25;;;3.68;100.00
9474;BME280;8865;47.636;7.692;2023-03-01T12:06:55;98457.16;;;3.93;100.00
9474;BME280;8865;47.636;7.692;2023-03-01T12:09:34;98452.41;;;4.16;100.00
9474;BME280;8865;47.636;7.692;2023-03-01T12:28:34;98428.91;;;3.73;100.00
9474;BME280;8865;47.636;7.692;2023-03-01T12:47:26;98406.41;;;4.79;100.00
9474;BME280;8865;47.636;7.692;2023-03-01T12:50:00;98412.16;;;4.98;100.00
9474;BME280;8865;47.636;7.692;2023-03-01T12:52:39;98404.03;;;4.90;100.00
9474;BME280;8865;47.636;7.692;2023-03-01T12:55:37;98399.56;;;4.92;100.00
9474;BME280;8865;47.636;7.692;2023-03-01T13:01:00;98394.81;;;4.99;100.00
9474;BME280;8865;47.636;7.692;2023-03-01T13:06:47;98387.50;;;5.06;100.00
9474;BME280;8865;47.636;7.692;2023-03-01T13:11:59;98391.47;;;5.26;100.00
9474;BME280;8865;47.636;7.692;2023-03-01T13:16:52;98384.31;;;5.29;100.00
9474;BME280;8865;47.636;7.692;2023-03-01T13:19:21;98382.66;;;5.14;100.00
9474;BME280;8865;47.636;7.692;2023-03-01T13:21:49;98381.78;;;5.42;100.00
9474;BME280;8865;47.636;7.692;2023-03-01T13:29:52;98384.75;;;5.78;100.00
9474;BME280;8865;47.636;7.692;2023-03-01T13:37:39;98384.00;;;6.03;100.00
9474;BME280;8865;47.636;7.692;2023-03-01T13:42:54;98386.81;;;6.13;100.00
9474;BME280;8865;47.636;7.692;2023-03-01T13:45:22;98379.47;;;6.19;100.00
9474;BME280;8865;47.636;7.692;2023-03-01T13:47:55;98379.66;;;6.16;100.00
9474;BME280;8865;47.636;7.692;2023-03-01T13:50:27;98381.75;;;6.24;95.68
9474;BME280;8865;47.636;7.692;2023-03-01T13:52:55;98378.41;;;6.22;95.07
9474;BME280;8865;47.636;7.692;2023-03-01T13:55:35;98370.59;;;6.09;100.00
9474;BME280;8865;47.636;7.692;2023-03-01T13:58:14;98370.28;;;6.14;99.44
9474;BME280;8865;47.636;7.692;2023-03-01T14:00:41;98371.56;;;6.21;100.00
9474;BME280;8865;47.636;7.692;2023-03-01T14:05:40;98360.00;;;6.25;100.00
9474;BME280;8865;47.636;7.692;2023-03-01T14:08:21;98367.81;;;6.25;96.48
9474;BME280;8865;47.636;7.692;2023-03-01T14:10:54;98372.69;;;6.30;97.64
9474;BME280;8865;47.636;7.692;2023-03-01T14:13:48;98368.25;;;6.32;96.14
9474;BME280;8865;47.636;7.692;2023-03-01T14:19:18;98367.22;;;6.34;96.31
9474;BME280;8865;47.636;7.692;2023-03-01T14:21:46;98364.31;;;6.39;94.13
9474;BME280;8865;47.636;7.692;2023-03-01T14:24:20;98357.72;;;6.46;90.81
9474;BME280;8865;47.636;7.692;2023-03-01T14:26:48;98364.72;;;6.46;89.81
9474;BME280;8865;47.636;7.692;2023-03-01T14:31:51;98364.78;;;6.31;88.22
9474;BME280;8865;47.636;7.692;2023-03-01T14:34:22;98359.50;;;6.20;90.24
9474;BME280;8865;47.636;7.692;2023-03-01T14:36:48;98365.91;;;6.14;94.05
9474;BME280;8865;47.636;7.692;2023-03-01T14:39:25;98370.59;;;6.09;97.24
9474;BME280;8865;47.636;7.692;2023-03-01T14:41:52;98375.19;;;6.05;97.19
9474;BME280;8865;47.636;7.692;2023-03-01T14:44:23;98374.53;;;6.02;96.85
9474;BME280;8865;47.636;7.692;2023-03-01T14:46:54;98378.44;;;5.95;97.82
9474;BME280;8865;47.636;7.692;2023-03-01T14:49:24;98365.06;;;5.73;95.80
9474;BME280;8865;47.636;7.692;2023-03-01T14:51:57;98370.22;;;5.61;96.34
9474;BME280;8865;47.636;7.692;2023-03-01T14:54:29;98361.34;;;5.50;99.51
9474;BME280;8865;47.636;7.692;2023-03-01T14:57:00;98366.75;;;5.47;100.00
9474;BME280;8865;47.636;7.692;2023-03-01T14:59:27;98362.03;;;5.40;100.00
9474;BME280;8865;47.636;7.692;2023-03-01T15:01:55;98360.34;;;5.39;100.00
9474;BME280;8865;47.636;7.692;2023-03-01T15:04:23;98364.63;;;5.40;100.00
9474;BME280;8865;47.636;7.692;2023-03-01T15:06:51;98365.91;;;5.47;100.00
9474;BME280;8865;47.636;7.692;2023-03-01T15:09:18;98367.38;;;5.51;98.53
9474;BME280;8865;47.636;7.692;2023-03-01T15:11:45;98361.16;;;5.53;98.61
9474;BME280;8865;47.636;7.692;2023-03-01T15:14:40;98365.66;;;5.64;100.00
9474;BME280;8865;47.636;7.692;2023-03-01T15:17:29;98358.59;;;5.66;95.20
9474;BME280;8865;47.636;7.692;2023-03-01T15:19:56;98371.16;;;5.60;94.78
9474;BME280;8865;47.636;7.692;2023-03-01T15:22:25;98364.38;;;5.57;95.53
9474;BME280;8865;47.636;7.692;2023-03-01T15:24:52;98355.47;;;5.61;93.58
9474;BME280;8865;47.636;7.692;2023-03-01T15:27:21;98342.22;;;5.79;91.79
9474;BME280;8865;47.636;7.692;2023-03-01T15:29:56;98344.09;;;5.89;90.41
9474;BME280;8865;47.636;7.692;2023-03-01T15:34:52;98334.59;;;5.76;89.89
9474;BME280;8865;47.636;7.692;2023-03-01T15:37:44;98344.28;;;5.73;90.15
9474;BME280;8865;47.636;7.692;2023-03-01T15:40:19;98341.09;;;5.83;94.17
9474;BME280;8865;47.636;7.692;2023-03-01T15:42:46;98340.16;;;5.84;89.66
9474;BME280;8865;47.636;7.692;2023-03-01T15:47:50;98343.41;;;5.60;91.51
9474;BME280;8865;47.636;7.692;2023-03-01T15:50:23;98341.94;;;5.56;92.89
9474;BME280;8865;47.636;7.692;2023-03-01T15:52:49;98339.56;;;5.39;93.10
9474;BME280;8865;47.636;7.692;2023-03-01T15:55:18;98338.38;;;5.44;95.23
9474;BME280;8865;47.636;7.692;2023-03-01T15:57:44;98343.28;;;5.49;95.05
9474;BME280;8865;47.636;7.692;2023-03-01T16:00:12;98341.13;;;5.28;94.47
9474;BME280;8865;47.636;7.692;2023-03-01T16:02:41;98341.25;;;4.98;96.64
9474;BME280;8865;47.636;7.692;2023-03-01T16:05:20;98349.53;;;4.90;97.11
9474;BME280;8865;47.636;7.692;2023-03-01T16:07:47;98348.50;;;4.78;97.10
9474;BME280;8865;47.636;7.692;2023-03-01T16:10:13;98352.41;;;4.57;99.34
9474;BME280;8865;47.636;7.692;2023-03-01T16:12:39;98351.66;;;4.69;100.00
9474;BME280;8865;47.636;7.692;2023-03-01T16:15:15;98346.47;;;4.69;99.53
9474;BME280;8865;47.636;7.692;2023-03-01T16:17:42;98347.66;;;4.49;100.00
9474;BME280;8865;47.636;7.692;2023-03-01T16:20:09;98339.97;;;4.33;100.00
9474;BME280;8865;47.636;7.692;2023-03-01T16:22:35;98339.09;;;4.18;100.00
9474;BME280;8865;47.636;7.692;2023-03-01T16:25:01;98339.84;;;4.20;100.00
9474;BME280;8865;47.636;7.692;2023-03-01T16:27:28;98342.78;;;4.00;100.00
9474;BME280;8865;47.636;7.692;2023-03-01T16:29:54;98348.34;;;4.08;100.00
9474;BME280;8865;47.636;7.692;2023-03-01T16:32:20;98339.16;;;4.02;100.00
9474;BME280;8865;47.636;7.692;2023-03-01T16:34:46;98345.94;;;4.05;100.00
9474;BME280;8865;47.636;7.692;2023-03-01T16:37:15;98358.78;;;4.06;100.00
9474;BME280;8865;47.636;7.692;2023-03-01T16:39:41;98347.78;;;4.03;100.00
9474;BME280;8865;47.636;7.692;2023-03-01T16:42:07;98349.22;;;3.92;100.00
9474;BME280;8865;47.636;7.692;2023-03-01T16:44:33;98356.09;;;3.93;100.00
9474;BME280;8865;47.636;7.692;2023-03-01T16:46:59;98357.00;;;3.92;100.00
9474;BME280;8865;47.636;7.692;2023-03-01T16:49:25;98365.84;;;3.88;100.00
9474;BME280;8865;47.636;7.692;2023-03-01T16:51:53;98362.72;;;3.83;100.00
9474;BME280;8865;47.636;7.692;2023-03-01T16:54:19;98365.66;;;3.77;100.00
9474;BME280;8865;47.636;7.692;2023-03-01T16:56:45;98363.97;;;3.76;100.00
9474;BME280;8865;47.636;7.692;2023-03-01T16:59:11;98355.72;;;3.69;100.00
9474;BME280;8865;47.636;7.692;2023-03-01T17:01:37;98358.75;;;3.62;100.00
9474;BME280;8865;47.636;7.692;2023-03-01T17:04:08;98359.16;;;3.54;100.00
9474;BME280;8865;47.636;7.692;2023-03-01T17:06:35;98362.34;;;3.43;100.00
9474;BME280;8865;47.636;7.692;2023-03-01T17:09:01;98363.78;;;3.33;100.00
9474;BME280;8865;47.636;7.692;2023-03-01T17:11:27;98368.38;;;3.28;100.00
9474;BME280;8865;47.636;7.692;2023-03-01T17:13:53;98368.22;;;3.31;100.00
9474;BME280;8865;47.636;7.692;2023-03-01T17:16:20;98375.16;;;3.30;100.00
9474;BME280;8865;47.636;7.692;2023-03-01T17:18:46;98376.72;;;3.33;100.00
9474;BME280;8865;47.636;7.692;2023-03-01T17:21:13;98378.56;;;3.31;100.00
9474;BME280;8865;47.636;7.692;2023-03-01T17:23:43;98377.91;;;3.27;100.00
9474;BME280;8865;47.636;7.692;2023-03-01T17:26:09;98384.97;;;3.24;100.00
9474;BME280;8865;47.636;7.692;2023-03-01T17:28:36;98379.97;;;3.20;100.00
9474;BME280;8865;47.636;7.692;2023-03-01T17:31:04;98388.75;;;3.18;100.00
9474;BME280;8865;47.636;7.692;2023-03-01T17:33:31;98395.75;;;3.16;100.00
9474;BME280;8865;47.636;7.692;2023-03-01T17:35:58;98383.97;;;3.10;100.00
9474;BME280;8865;47.636;7.692;2023-03-01T17:38:25;98388.81;;;3.00;100.00
9474;BME280;8865;47.636;7.692;2023-03-01T17:40:51;98388.81;;;3.00;100.00
9474;BME280;8865;47.636;7.692;2023-03-01T17:43:17;98394.31;;;2.94;100.00
9474;BME280;8865;47.636;7.692;2023-03-01T17:45:43;98398.72;;;2.92;100.00
9474;BME280;8865;47.636;7.692;2023-03-01T17:48:14;98413.56;;;2.89;100.00
9474;BME280;8865;47.636;7.692;2023-03-01T17:50:40;98417.16;;;2.86;100.00
9474;BME280;8865;47.636;7.692;2023-03-01T17:53:06;98412.97;;;2.83;100.00
9474;BME280;8865;47.636;7.692;2023-03-01T17:55:35;98422.81;;;2.77;100.00
9474;BME280;8865;47.636;7.692;2023-03-01T17:58:03;98417.81;;;2.74;100.00
9474;BME280;8865;47.636;7.692;2023-03-01T18:00:29;98427.44;;;2.70;100.00
9474;BME280;8865;47.636;7.692;2023-03-01T18:02:55;98415.44;;;2.69;100.00
9474;BME280;8865;47.636;7.692;2023-03-01T18:05:21;98423.22;;;2.69;100.00
9474;BME280;8865;47.636;7.692;2023-03-01T18:07:47;98423.88;;;2.73;100.00
9474;BME280;8865;47.636;7.692;2023-03-01T18:10:16;98431.47;;;2.76;100.00
9474;BME280;8865;47.636;7.692;2023-03-01T18:12:42;98431.41;;;2.77;100.00
9474;BME280;8865;47.636;7.692;2023-03-01T18:15:08;98428.72;;;2.79;100.00
9474;BME280;8865;47.636;7.692;2023-03-01T18:17:34;98421.97;;;2.76;100.00
9474;BME280;8865;47.636;7.692;2023-03-01T18:20:00;98424.69;;;2.73;100.00
9474;BME280;8865;47.636;7.692;2023-03-01T18:22:26;98428.97;;;2.74;100.00
9474;BME280;8865;47.636;7.692;2023-03-01T18:24:52;98422.13;;;2.73;100.00
9474;BME280;8865;47.636;7.692;2023-03-01T18:27:18;98428.31;;;2.71;100.00
9474;BME280;8865;47.636;7.692;2023-03-01T18:29:44;98420.47;;;2.72;100.00
9474;BME280;8865;47.636;7.692;2023-03-01T18:32:10;98421.38;;;2.71;100.00
9474;BME280;8865;47.636;7.692;2023-03-01T18:34:36;98423.22;;;2.69;100.00
9474;BME280;8865;47.636;7.692;2023-03-01T18:37:02;98424.69;;;2.73;100.00
9474;BME280;8865;47.636;7.692;2023-03-01T18:39:28;98413.63;;;2.71;100.00
9474;BME280;8865;47.636;7.692;2023-03-01T18:41:54;98413.53;;;2.73;100.00
9474;BME280;8865;47.636;7.692;2023-03-01T18:44:20;98409.34;;;2.70;100.00
9474;BME280;8865;47.636;7.692;2023-03-01T18:46:46;98414.28;;;2.75;100.00
9474;BME280;8865;47.636;7.692;2023-03-01T18:49:13;98411.69;;;2.75;100.00
9474;BME280;8865;47.636;7.692;2023-03-01T18:51:40;98396.25;;;2.73;100.00
9474;BME280;8865;47.636;7.692;2023-03-01T18:54:08;98409.19;;;2.73;100.00
9474;BME280;8865;47.636;7.692;2023-03-01T18:56:35;98401.44;;;2.73;100.00
9474;BME280;8865;47.636;7.692;2023-03-01T18:59:01;98400.84;;;2.68;100.00
9474;BME280;8865;47.636;7.692;2023-03-01T19:01:29;98400.91;;;2.66;100.00
9474;BME280;8865;47.636;7.692;2023-03-01T19:03:56;98402.69;;;2.66;100.00
9474;BME280;8865;47.636;7.692;2023-03-01T19:06:26;98401.81;;;2.65;100.00
9474;BME280;8865;47.636;7.692;2023-03-01T19:08:53;98410.13;;;2.72;100.00
9474;BME280;8865;47.636;7.692;2023-03-01T19:11:19;98401.50;;;2.72;100.00
9474;BME280;8865;47.636;7.692;2023-03-01T19:13:46;98403.09;;;2.74;100.00
9474;BME280;8865;47.636;7.692;2023-03-01T19:16:15;98400.44;;;2.76;100.00
9474;BME280;8865;47.636;7.692;2023-03-01T19:18:43;98399.63;;;2.75;100.00
9474;BME280;8865;47.636;7.692;2023-03-01T19:21:16;98396.34;;;2.72;100.00
9474;BME280;8865;47.636;7.692;2023-03-01T19:23:43;98398.91;;;2.72;100.00
9474;BME280;8865;47.636;7.692;2023-03-01T19:26:14;98392.19;;;2.69;100.00
9474;BME280;8865;47.636;7.692;2023-03-01T19:28:40;98388.66;;;2.70;100.00
9474;BME280;8865;47.636;7.692;2023-03-01T19:31:08;98386.22;;;2.67;100.00
9474;BME280;8865;47.636;7.692;2023-03-01T19:33:35;98389.50;;;2.71;100.00
9474;BME280;8865;47.636;7.692;2023-03-01T19:36:03;98382.56;;;2.71;100.00
9474;BME280;8865;47.636;7.692;2023-03-01T19:38:29;98389.44;;;2.72;100.00
9474;BME280;8865;47.636;7.692;2023-03-01T19:40:56;98379.91;;;2.73;100.00
9474;BME280;8865;47.636;7.692;2023-03-01T19:43:22;98375.66;;;2.72;100.00
9474;BME280;8865;47.636;7.692;2023-03-01T19:45:53;98368.66;;;2.74;100.00
9474;BME280;8865;47.636;7.692;2023-03-01T19:48:19;98371.25;;;2.74;100.00
9474;BME280;8865;47.636;7.692;2023-03-01T19:50:46;98357.69;;;2.68;100.00
9474;BME280;8865;47.636;7.692;2023-03-01T19:53:13;98368.81;;;2.71;100.00
9474;BME280;8865;47.636;7.692;2023-03-01T19:55:39;98372.06;;;2.74;100.00
9474;BME280;8865;47.636;7.692;2023-03-01T19:58:06;98355.72;;;2.74;100.00
9474;BME280;8865;47.636;7.692;2023-03-01T20:00:33;98348.88;;;2.73;100.00
9474;BME280;8865;47.636;7.692;2023-03-01T20:02:59;98344.53;;;2.73;100.00
9474;BME280;8865;47.636;7.692;2023-03-01T20:05:25;98353.97;;;2.74;100.00
9474;BME280;8865;47.636;7.692;2023-03-01T20:07:54;98341.94;;;2.73;100.00
9474;BME280;8865;47.636;7.692;2023-03-01T20:10:23;98340.22;;;2.74;100.00
9474;BME280;8865;47.636;7.692;2023-03-01T20:12:52;98344.53;;;2.73;100.00
9474;BME280;8865;47.636;7.692;2023-03-01T20:15:18;98347.13;;;2.73;100.00
9474;BME280;8865;47.636;7.692;2023-03-01T20:17:45;98341.03;;;2.74;100.00
9474;BME280;8865;47.636;7.692;2023-03-01T20:20:12;98344.44;;;2.75;100.00
9474;BME280;8865;47.636;7.692;2023-03-01T20:22:39;98338.53;;;2.73;100.00
9474;BME280;8865;47.636;7.692;2023-03-01T20:25:05;98342.72;;;2.75;100.00
9474;BME280;8865;47.636;7.692;2023-03-01T20:27:32;98346.94;;;2.76;100.00
9474;BME280;8865;47.636;7.692;2023-03-01T20:29:58;98339.13;;;2.78;100.00
9474;BME280;8865;47.636;7.692;2023-03-01T20:32:24;98333.84;;;2.79;100.00
9474;BME280;8865;47.636;7.692;2023-03-01T20:34:50;98341.47;;;2.82;100.00
9474;BME280;8865;47.636;7.692;2023-03-01T20:37:16;98340.88;;;2.77;100.00
9474;BME280;8865;47.636;7.692;2023-03-01T20:39:42;98339.97;;;2.78;100.00
9474;BME280;8865;47.636;7.692;2023-03-01T20:42:08;98336.78;;;2.73;100.00
9474;BME280;8865;47.636;7.692;2023-03-01T20:44:34;98334.19;;;2.73;100.00
9474;BME280;8865;47.636;7.692;2023-03-01T20:47:09;98346.94;;;2.76;100.00
9474;BME280;8865;47.636;7.692;2023-03-01T20:49:36;98345.22;;;2.77;100.00
9474;BME280;8865;47.636;7.692;2023-03-01T20:52:02;98340.88;;;2.77;100.00
9474;BME280;8865;47.636;7.692;2023-03-01T20:54:28;98340.72;;;2.80;100.00
9474;BME280;8865;47.636;7.692;2023-03-01T20:56:54;98325.13;;;2.82;100.00
9474;BME280;8865;47.636;7.692;2023-03-01T20:59:21;98321.78;;;2.80;100.00
9474;BME280;8865;47.636;7.692;2023-03-01T21:01:48;98321.69;;;2.81;100.00
9474;BME280;8865;47.636;7.692;2023-03-01T21:04:15;98318.19;;;2.82;100.00
9474;BME280;8865;47.636;7.692;2023-03-01T21:06:43;98312.09;;;2.83;100.00
9474;BME280;8865;47.636;7.692;2023-03-01T21:09:09;98317.19;;;2.85;100.00
9474;BME280;8865;47.636;7.692;2023-03-01T21:11:36;98311.84;;;2.88;100.00
9474;BME280;8865;47.636;7.692;2023-03-01T21:14:03;98309.59;;;2.82;100.00
9474;BME280;8865;47.636;7.692;2023-03-01T21:16:31;98301.59;;;2.86;100.00
9474;BME280;8865;47.636;7.692;2023-03-01T21:19:00;98308.44;;;2.88;100.00
9474;BME280;8865;47.636;7.692;2023-03-01T21:21:28;98300.50;;;2.91;100.00
9474;BME280;8865;47.636;7.692;2023-03-01T21:23:54;98291.81;;;2.92;100.00
9474;BME280;8865;47.636;7.692;2023-03-01T21:26:29;98289.47;;;2.87;100.00
9474;BME280;8865;47.636;7.692;2023-03-01T21:28:59;98286.22;;;2.83;100.00
9474;BME280;8865;47.636;7.692;2023-03-01T21:31:28;98275.88;;;2.83;100.00
9474;BME280;8865;47.636;7.692;2023-03-01T21:33:58;98274.91;;;2.86;100.00
9474;BME280;8865;47.636;7.692;2023-03-01T21:36:26;98271.44;;;2.85;100.00
9474;BME280;8865;47.636;7.692;2023-03-01T21:38:53;98263.13;;;2.80;100.00
9474;BME280;8865;47.636;7.692;2023-03-01T21:41:20;98264.44;;;2.72;100.00
9474;BME280;8865;47.636;7.692;2023-03-01T21:43:48;98268.69;;;2.73;100.00
9474;BME280;8865;47.636;7.692;2023-03-01T21:46:19;98267.63;;;2.77;100.00
9474;BME280;8865;47.636;7.692;2023-03-01T21:48:46;98266.94;;;2.73;100.00
9474;BME280;8865;47.636;7.692;2023-03-01T21:51:14;98269.97;;;2.81;100.00
9474;BME280;8865;47.636;7.692;2023-03-01T21:53:41;98264.63;;;2.84;100.00